createdAt,value
2019-05-22T00:02:21.070Z,14.70
2019-05-22T00:05:14.096Z,14.70
2019-05-22T00:07:47.564Z,14.50
2019-05-22T00:10:22.484Z,14.50
2019-05-22T00:12:54.763Z,14.50
2019-05-22T00:15:25.358Z,14.50
2019-05-22T00:17:57.884Z,14.40
2019-05-22T00:20:29.797Z,14.30
2019-05-22T00:23:04.387Z,14.20
2019-05-22T00:25:38.227Z,14.10
2019-05-22T00:28:10.162Z,14.00
2019-05-22T00:30:42.350Z,13.90
2019-05-22T00:33:14.965Z,13.90
2019-05-22T00:35:45.642Z,13.90
2019-05-22T00:38:18.132Z,13.80
2019-05-22T00:40:52.259Z,13.80
2019-05-22T00:43:31.508Z,13.70
2019-05-22T00:46:05.121Z,13.70
2019-05-22T00:48:36.721Z,13.60
2019-05-22T00:51:12.463Z,13.60
2019-05-22T00:54:00.325Z,13.50
2019-05-22T00:56:38.336Z,13.60
2019-05-22T00:59:14.427Z,13.60
2019-05-22T01:01:46.392Z,13.60
2019-05-22T01:04:19.320Z,13.50
2019-05-22T01:06:52.502Z,13.50
2019-05-22T01:09:39.560Z,13.50
2019-05-22T01:12:14.569Z,13.40
2019-05-22T01:14:46.494Z,13.40
2019-05-22T01:17:17.916Z,13.50
2019-05-22T01:19:51.466Z,13.40
2019-05-22T01:22:24.134Z,13.40
2019-05-22T01:24:55.165Z,13.40
2019-05-22T01:27:26.947Z,13.30
2019-05-22T01:29:57.498Z,13.20
2019-05-22T01:32:33.674Z,13.20
2019-05-22T01:35:05.514Z,13.20
2019-05-22T01:37:37.183Z,13.20
2019-05-22T01:40:12.441Z,13.30
2019-05-22T01:42:45.309Z,13.30
2019-05-22T01:45:16.762Z,13.30
2019-05-22T01:47:51.637Z,13.30
2019-05-22T01:50:45.041Z,13.40
2019-05-22T01:53:18.497Z,13.30
2019-05-22T01:55:51.912Z,13.30
2019-05-22T01:58:23.838Z,13.20
2019-05-22T02:00:56.877Z,13.20
2019-05-22T02:03:29.814Z,13.30
2019-05-22T02:06:01.880Z,13.30
2019-05-22T02:08:35.093Z,13.40
2019-05-22T02:11:08.709Z,13.50
2019-05-22T02:13:44.625Z,13.60
2019-05-22T02:16:17.169Z,13.80
2019-05-22T02:18:49.791Z,13.80
2019-05-22T02:21:22.237Z,13.70
2019-05-22T02:23:53.043Z,13.70
2019-05-22T02:26:24.498Z,13.80
2019-05-22T02:28:55.719Z,13.80
2019-05-22T02:31:26.792Z,13.80
2019-05-22T02:34:01.707Z,13.80
2019-05-22T02:36:34.636Z,13.90
2019-05-22T02:39:12.661Z,13.90
2019-05-22T02:41:46.366Z,14.00
2019-05-22T02:44:17.892Z,14.10
2019-05-22T02:46:50.652Z,14.10
2019-05-22T02:49:23.583Z,14.10
2019-05-22T02:51:56.462Z,14.20
2019-05-22T02:54:30.455Z,14.20
2019-05-22T02:57:02.594Z,14.30
2019-05-22T02:59:33.299Z,14.30
2019-05-22T03:02:05.132Z,14.30
2019-05-22T03:05:05.801Z,14.30
2019-05-22T03:07:36.894Z,14.30
2019-05-22T03:10:10.185Z,14.30
2019-05-22T03:12:42.071Z,14.40
2019-05-22T03:15:15.061Z,14.50
2019-05-22T03:17:48.301Z,14.50
2019-05-22T03:20:21.544Z,14.50
2019-05-22T03:23:10.174Z,14.50
2019-05-22T03:25:42.597Z,14.60
2019-05-22T03:28:14.052Z,14.60
2019-05-22T03:30:45.760Z,14.60
2019-05-22T03:33:16.838Z,14.60
2019-05-22T03:35:53.124Z,14.60
2019-05-22T03:38:26.235Z,14.60
2019-05-22T03:40:57.391Z,14.60
2019-05-22T03:43:30.010Z,14.60
2019-05-22T03:46:04.929Z,14.60
2019-05-22T03:48:38.111Z,14.60
2019-05-22T03:51:14.401Z,14.60
2019-05-22T03:53:46.614Z,14.60
2019-05-22T03:56:17.827Z,14.60
2019-05-22T03:58:48.203Z,14.60
2019-05-22T04:01:20.031Z,14.60
2019-05-22T04:03:50.589Z,14.60
2019-05-22T04:06:22.325Z,14.60
2019-05-22T04:08:55.011Z,14.60
2019-05-22T04:11:29.260Z,14.60
2019-05-22T04:13:59.823Z,14.70
2019-05-22T04:16:30.665Z,14.70
2019-05-22T04:19:02.944Z,14.70
2019-05-22T04:21:33.927Z,14.70
2019-05-22T04:24:05.289Z,14.80
2019-05-22T04:26:35.906Z,14.80
2019-05-22T04:29:07.034Z,14.80
2019-05-22T04:31:55.685Z,14.80
2019-05-22T04:34:26.606Z,14.80
2019-05-22T04:36:57.944Z,14.80
2019-05-22T04:39:31.921Z,14.80
2019-05-22T04:42:02.549Z,14.90
2019-05-22T04:44:33.489Z,14.90
2019-05-22T04:47:04.291Z,15.00
2019-05-22T04:49:35.065Z,15.10
2019-05-22T04:52:05.692Z,15.10
2019-05-22T04:54:36.228Z,15.10
2019-05-22T04:57:07.965Z,15.10
2019-05-22T04:59:39.380Z,15.10
2019-05-22T05:02:10.898Z,15.20
2019-05-22T05:04:42.075Z,15.20
2019-05-22T05:07:12.507Z,15.30
2019-05-22T05:09:42.860Z,15.40
2019-05-22T05:12:13.285Z,15.50
2019-05-22T05:14:44.362Z,15.50
2019-05-22T05:17:14.788Z,15.50
2019-05-22T05:19:45.169Z,15.50
2019-05-22T05:22:18.522Z,15.50
2019-05-22T05:24:49.556Z,15.50
2019-05-22T05:27:19.961Z,15.50
2019-05-22T05:29:50.382Z,15.50
2019-05-22T05:32:20.797Z,15.50
2019-05-22T05:34:54.160Z,15.50
2019-05-22T05:37:25.719Z,15.50
2019-05-22T05:40:06.686Z,15.40
2019-05-22T05:42:38.428Z,15.50
2019-05-22T05:45:13.879Z,15.50
2019-05-22T05:47:44.557Z,15.50
2019-05-22T05:50:17.076Z,15.50
2019-05-22T05:52:48.499Z,15.50
2019-05-22T05:55:21.389Z,15.50
2019-05-22T05:57:55.068Z,15.60
2019-05-22T06:00:33.170Z,15.60
2019-05-22T06:03:32.714Z,15.70
2019-05-22T06:06:21.925Z,15.70
2019-05-22T06:08:57.599Z,15.80
2019-05-22T06:11:56.542Z,15.90
2019-05-22T06:14:30.195Z,16.00
2019-05-22T06:17:26.299Z,16.10
2019-05-22T06:20:12.018Z,16.20
2019-05-22T06:22:44.048Z,16.40
2019-05-22T06:25:16.927Z,16.60
2019-05-22T06:27:51.719Z,16.70
2019-05-22T06:30:25.785Z,16.90
2019-05-22T06:33:09.496Z,16.90
2019-05-22T06:35:39.997Z,16.90
2019-05-22T06:38:39.145Z,16.90
2019-05-22T06:41:10.265Z,17.00
2019-05-22T06:43:43.718Z,17.40
2019-05-22T06:46:16.913Z,17.70
2019-05-22T06:48:48.019Z,18.00
2019-05-22T06:51:19.703Z,18.30
2019-05-22T06:53:50.478Z,18.70
2019-05-22T06:56:23.731Z,19.00
2019-05-22T06:58:52.927Z,19.00
2019-05-22T07:01:24.608Z,19.50
2019-05-22T07:03:55.407Z,19.90
2019-05-22T07:06:25.882Z,20.60
2019-05-22T07:08:57.020Z,20.70
2019-05-22T07:11:27.870Z,20.90
2019-05-22T07:13:59.826Z,20.80
2019-05-22T07:16:30.598Z,20.50
2019-05-22T07:19:01.822Z,20.30
2019-05-22T07:21:34.183Z,20.20
2019-05-22T07:24:05.874Z,20.40
2019-05-22T07:26:37.720Z,20.30
2019-05-22T07:29:09.061Z,20.30
2019-05-22T07:31:41.757Z,20.20
2019-05-22T07:34:12.976Z,20.30
2019-05-22T07:36:45.019Z,20.50
2019-05-22T07:39:15.876Z,20.60
2019-05-22T07:41:46.733Z,20.80
2019-05-22T07:44:17.279Z,20.90
2019-05-22T07:46:48.708Z,20.60
2019-05-22T07:49:19.468Z,20.70
2019-05-22T07:51:57.511Z,20.70
2019-05-22T07:54:21.246Z,20.70
2019-05-22T07:56:52.485Z,20.40
2019-05-22T07:59:24.066Z,20.90
2019-05-22T08:01:55.210Z,21.20
2019-05-22T08:04:25.706Z,21.40
2019-05-22T08:06:56.117Z,21.50
2019-05-22T08:09:27.778Z,21.40
2019-05-22T08:11:59.928Z,20.90
2019-05-22T08:14:31.087Z,21.50
2019-05-22T08:17:03.823Z,21.70
2019-05-22T08:19:34.524Z,21.20
2019-05-22T08:22:07.658Z,21.10
2019-05-22T08:24:37.913Z,21.30
2019-05-22T08:27:09.414Z,21.30
2019-05-22T08:29:40.628Z,21.30
2019-05-22T08:32:22.456Z,21.50
2019-05-22T08:34:58.193Z,21.20
2019-05-22T08:37:34.615Z,21.80
2019-05-22T08:40:14.885Z,21.70
2019-05-22T08:42:47.273Z,22.20
2019-05-22T08:45:21.208Z,22.50
2019-05-22T08:47:56.800Z,22.90
2019-05-22T08:50:37.154Z,22.80
2019-05-22T08:53:11.126Z,22.40
2019-05-22T08:55:45.145Z,22.20
2019-05-22T08:58:20.235Z,22.30
2019-05-22T09:00:54.119Z,22.90
2019-05-22T09:03:25.335Z,22.90
2019-05-22T09:05:57.810Z,23.10
2019-05-22T09:08:32.380Z,22.80
2019-05-22T09:11:05.958Z,22.30
2019-05-22T09:13:39.327Z,22.40
2019-05-22T09:16:12.222Z,22.60
2019-05-22T09:18:45.048Z,22.10
2019-05-22T09:21:18.438Z,22.00
2019-05-22T09:23:51.304Z,22.10
2019-05-22T09:26:23.731Z,21.90
2019-05-22T09:28:54.259Z,21.80
2019-05-22T09:31:24.680Z,21.90
2019-05-22T09:33:55.122Z,21.80
2019-05-22T09:36:25.836Z,21.70
2019-05-22T09:38:56.359Z,22.10
2019-05-22T09:41:26.792Z,22.00
2019-05-22T09:43:57.256Z,22.70
2019-05-22T09:46:27.679Z,22.40
2019-05-22T09:48:59.965Z,22.70
2019-05-22T09:51:30.910Z,22.40
2019-05-22T09:54:02.288Z,22.60
2019-05-22T09:56:32.891Z,22.90
2019-05-22T09:59:04.080Z,23.00
2019-05-22T10:01:34.536Z,22.70
2019-05-22T10:04:05.257Z,22.60
2019-05-22T10:06:36.062Z,22.70
2019-05-22T10:09:08.660Z,22.40
2019-05-22T10:11:39.800Z,22.80
2019-05-22T10:14:10.930Z,22.90
2019-05-22T10:16:42.098Z,22.80
2019-05-22T10:19:13.139Z,22.90
2019-05-22T10:21:45.565Z,22.90
2019-05-22T10:24:17.046Z,23.20
2019-05-22T10:26:47.530Z,23.50
2019-05-22T10:29:17.941Z,24.00
2019-05-22T10:31:48.654Z,24.80
2019-05-22T10:34:19.060Z,25.20
2019-05-22T10:36:49.479Z,25.30
2019-05-22T10:39:24.496Z,25.60
2019-05-22T10:41:53.197Z,25.40
2019-05-22T10:44:23.988Z,25.70
2019-05-22T10:46:54.519Z,25.30
2019-05-22T10:49:25.702Z,25.40
2019-05-22T10:51:56.065Z,25.20
2019-05-22T10:54:26.429Z,24.60
2019-05-22T10:56:56.831Z,24.20
2019-05-22T10:59:27.505Z,24.00
2019-05-22T11:01:58.140Z,24.60
2019-05-22T11:04:30.028Z,24.90
2019-05-22T11:07:00.960Z,24.80
2019-05-22T11:09:32.352Z,24.80
2019-05-22T11:12:04.401Z,24.30
2019-05-22T11:14:34.860Z,24.50
2019-05-22T11:17:05.618Z,24.70
2019-05-22T11:19:36.359Z,24.70
2019-05-22T11:22:07.782Z,24.30
2019-05-22T11:24:38.665Z,24.30
2019-05-22T11:27:10.687Z,24.40
2019-05-22T11:29:43.285Z,24.60
2019-05-22T11:32:15.723Z,24.80
2019-05-22T11:34:46.847Z,25.00
2019-05-22T11:37:17.581Z,25.10
2019-05-22T11:39:48.101Z,25.20
2019-05-22T11:42:19.717Z,24.70
2019-05-22T11:44:50.098Z,25.10
2019-05-22T11:47:20.523Z,24.80
2019-05-22T11:49:51.162Z,24.70
2019-05-22T11:52:21.779Z,24.60
2019-05-22T11:54:53.343Z,24.50
2019-05-22T11:57:24.612Z,24.80
2019-05-22T11:59:55.141Z,25.00
2019-05-22T12:02:26.287Z,25.10
2019-05-22T12:04:57.321Z,25.20
2019-05-22T12:07:27.693Z,24.90
2019-05-22T12:09:59.538Z,24.90
2019-05-22T12:12:30.141Z,24.70
2019-05-22T12:15:01.467Z,24.80
2019-05-22T12:17:38.171Z,24.70
2019-05-22T12:20:10.345Z,24.50
2019-05-22T12:22:41.592Z,24.50
2019-05-22T12:25:13.737Z,24.60
2019-05-22T12:27:44.282Z,24.60
2019-05-22T12:30:16.013Z,25.00
2019-05-22T12:32:46.806Z,25.10
2019-05-22T12:35:18.715Z,24.40
2019-05-22T12:37:49.418Z,24.40
2019-05-22T12:40:21.162Z,24.20
2019-05-22T12:42:53.186Z,24.30
2019-05-22T12:45:26.075Z,23.80
2019-05-22T12:47:57.684Z,24.00
2019-05-22T12:50:31.788Z,24.60
2019-05-22T12:53:06.232Z,24.70
2019-05-22T12:55:37.561Z,24.60
2019-05-22T12:58:08.252Z,24.40
2019-05-22T13:00:38.906Z,24.70
2019-05-22T13:03:09.475Z,24.60
2019-05-22T13:05:41.026Z,24.80
2019-05-22T13:08:13.706Z,24.80
2019-05-22T13:10:45.717Z,24.50
2019-05-22T13:13:16.535Z,24.30
2019-05-22T13:15:47.622Z,24.40
2019-05-22T13:18:20.731Z,24.50
2019-05-22T13:20:53.266Z,24.20
2019-05-22T13:23:26.948Z,24.00
2019-05-22T13:25:58.626Z,23.90
2019-05-22T13:28:31.093Z,23.90
2019-05-22T13:31:02.177Z,24.10
2019-05-22T13:33:35.763Z,24.00
2019-05-22T13:36:08.348Z,24.20
2019-05-22T13:38:39.301Z,24.00
2019-05-22T13:41:11.118Z,23.90
2019-05-22T13:43:42.855Z,23.60
2019-05-22T13:46:14.100Z,23.70
2019-05-22T13:48:44.525Z,23.60
2019-05-22T13:51:15.665Z,23.80
2019-05-22T13:53:47.698Z,23.70
2019-05-22T13:56:18.582Z,23.50
2019-05-22T13:58:51.336Z,23.60
2019-05-22T14:01:22.102Z,23.80
2019-05-22T14:03:53.982Z,23.90
2019-05-22T14:06:25.017Z,24.00
2019-05-22T14:08:55.673Z,24.30
2019-05-22T14:11:26.317Z,24.40
2019-05-22T14:13:57.544Z,24.40
2019-05-22T14:16:28.095Z,24.30
2019-05-22T14:18:58.931Z,24.30
2019-05-22T14:21:29.452Z,24.10
2019-05-22T14:23:59.871Z,24.20
2019-05-22T14:26:30.309Z,24.20
2019-05-22T14:29:00.732Z,24.50
2019-05-22T14:31:32.386Z,24.70
2019-05-22T14:34:04.551Z,24.50
2019-05-22T14:36:36.274Z,24.50
2019-05-22T14:39:08.601Z,24.30
2019-05-22T14:41:39.095Z,24.60
2019-05-22T14:44:09.993Z,24.50
2019-05-22T14:46:40.453Z,24.50
2019-05-22T14:49:10.899Z,24.80
2019-05-22T14:51:42.241Z,24.90
2019-05-22T14:54:12.941Z,25.00
2019-05-22T14:56:45.086Z,25.30
2019-05-22T14:59:15.937Z,25.30
2019-05-22T15:01:46.304Z,25.50
2019-05-22T15:04:16.957Z,25.70
2019-05-22T15:06:49.128Z,25.70
2019-05-22T15:09:18.819Z,25.70
2019-05-22T15:11:49.596Z,25.20
2019-05-22T15:14:20.229Z,25.10
2019-05-22T15:16:51.200Z,25.20
2019-05-22T15:19:22.350Z,25.10
2019-05-22T15:21:52.821Z,25.30
2019-05-22T15:24:24.965Z,25.50
2019-05-22T15:26:55.537Z,25.00
2019-05-22T15:29:26.668Z,25.20
2019-05-22T15:31:57.448Z,25.20
2019-05-22T15:34:30.896Z,25.00
2019-05-22T15:37:03.075Z,25.00
2019-05-22T15:39:35.172Z,24.90
2019-05-22T15:42:07.496Z,24.90
2019-05-22T15:44:40.477Z,24.90
2019-05-22T15:47:11.639Z,25.10
2019-05-22T15:49:45.222Z,24.70
2019-05-22T15:52:16.698Z,24.70
2019-05-22T15:54:48.555Z,24.80
2019-05-22T15:57:20.694Z,25.00
2019-05-22T15:59:52.626Z,24.90
2019-05-22T16:02:25.811Z,24.90
2019-05-22T16:04:58.246Z,24.70
2019-05-22T16:07:28.694Z,25.00
2019-05-22T16:10:00.019Z,25.30
2019-05-22T16:12:31.026Z,25.60
2019-05-22T16:15:01.903Z,25.70
2019-05-22T16:17:33.618Z,25.80
2019-05-22T16:20:07.752Z,25.30
2019-05-22T16:22:38.270Z,25.10
2019-05-22T16:25:09.903Z,25.00
2019-05-22T16:27:43.412Z,24.90
2019-05-22T16:30:15.827Z,24.70
2019-05-22T16:32:47.509Z,24.60
2019-05-22T16:35:20.172Z,24.50
2019-05-22T16:37:50.752Z,24.50
2019-05-22T16:40:22.588Z,24.40
2019-05-22T16:42:55.474Z,24.30
2019-05-22T16:45:27.308Z,24.30
2019-05-22T16:47:58.905Z,24.30
2019-05-22T16:50:29.458Z,24.10
2019-05-22T16:53:01.855Z,24.00
2019-05-22T16:55:33.278Z,24.00
2019-05-22T16:58:03.841Z,24.10
2019-05-22T17:00:34.765Z,24.20
2019-05-22T17:03:06.382Z,23.90
2019-05-22T17:05:38.403Z,23.90
2019-05-22T17:08:10.241Z,24.00
2019-05-22T17:10:41.230Z,24.00
2019-05-22T17:13:16.016Z,23.90
2019-05-22T17:15:46.892Z,23.70
2019-05-22T17:18:18.628Z,23.50
2019-05-22T17:20:50.690Z,23.50
2019-05-22T17:23:21.214Z,23.50
2019-05-22T17:25:51.878Z,23.50
2019-05-22T17:28:22.914Z,23.50
2019-05-22T17:30:54.309Z,23.60
2019-05-22T17:33:25.137Z,23.50
2019-05-22T17:35:56.949Z,23.50
2019-05-22T17:38:28.675Z,23.50
2019-05-22T17:41:00.813Z,23.50
2019-05-22T17:43:31.783Z,23.50
2019-05-22T17:46:02.333Z,23.60
2019-05-22T17:48:35.116Z,23.60
2019-05-22T17:51:06.149Z,23.50
2019-05-22T17:53:37.018Z,23.40
2019-05-22T17:56:07.928Z,23.20
2019-05-22T17:58:38.509Z,23.00
2019-05-22T18:01:10.227Z,22.60
2019-05-22T18:03:41.629Z,22.30
2019-05-22T18:06:13.165Z,22.10
2019-05-22T18:08:44.532Z,21.80
2019-05-22T18:11:15.771Z,21.70
2019-05-22T18:13:54.724Z,21.90
2019-05-22T18:16:25.345Z,21.90
2019-05-22T18:18:56.305Z,22.00
2019-05-22T18:21:27.655Z,21.80
2019-05-22T18:23:59.625Z,21.50
2019-05-22T18:26:30.257Z,21.00
2019-05-22T18:29:00.935Z,20.70
2019-05-22T18:31:31.555Z,20.30
2019-05-22T18:34:02.185Z,20.20
2019-05-22T18:36:32.589Z,20.10
2019-05-22T18:39:05.789Z,20.00
2019-05-22T18:41:36.137Z,20.00
2019-05-22T18:44:06.552Z,20.00
2019-05-22T18:46:36.911Z,19.90
2019-05-22T18:49:07.431Z,19.80
2019-05-22T18:51:37.799Z,19.70
2019-05-22T18:54:08.211Z,19.60
2019-05-22T18:56:38.561Z,19.70
2019-05-22T18:59:09.088Z,19.70
2019-05-22T19:01:39.538Z,19.70
2019-05-22T19:04:10.381Z,19.60
2019-05-22T19:06:40.775Z,19.60
2019-05-22T19:09:11.787Z,19.60
2019-05-22T19:11:42.713Z,19.60
2019-05-22T19:14:13.720Z,19.60
2019-05-22T19:16:44.113Z,19.60
2019-05-22T19:19:16.105Z,19.60
2019-05-22T19:21:46.643Z,19.60
2019-05-22T19:24:17.060Z,19.70
2019-05-22T19:26:48.165Z,19.70
2019-05-22T19:29:18.923Z,19.60
2019-05-22T19:31:49.818Z,19.60
2019-05-22T19:34:20.667Z,19.60
2019-05-22T19:36:51.999Z,19.60
2019-05-22T19:39:22.659Z,19.60
2019-05-22T19:42:01.877Z,19.60
2019-05-22T19:44:24.705Z,19.60
2019-05-22T19:46:55.538Z,19.40
2019-05-22T19:49:26.193Z,19.30
2019-05-22T19:51:58.146Z,19.10
2019-05-22T19:54:28.690Z,19.10
2019-05-22T19:56:59.695Z,19.20
2019-05-22T19:59:30.622Z,19.10
2019-05-22T20:02:00.992Z,19.10
2019-05-22T20:04:32.828Z,19.10
2019-05-22T20:07:04.880Z,19.10
2019-05-22T20:09:35.519Z,19.10
2019-05-22T20:12:07.825Z,19.10
2019-05-22T20:14:37.490Z,19.20
2019-05-22T20:17:08.273Z,19.10
2019-05-22T20:19:39.017Z,19.10
2019-05-22T20:22:09.877Z,19.10
2019-05-22T20:24:40.756Z,19.00
2019-05-22T20:27:11.408Z,19.00
2019-05-22T20:29:41.763Z,19.00
2019-05-22T20:32:14.131Z,19.00
2019-05-22T20:34:45.362Z,19.00
2019-05-22T20:37:16.511Z,19.00
2019-05-22T20:39:47.634Z,19.00
2019-05-22T20:42:18.009Z,19.00
2019-05-22T20:44:48.837Z,18.90
2019-05-22T20:47:22.650Z,18.90
2019-05-22T20:49:54.636Z,18.80
2019-05-22T20:52:25.163Z,18.80
2019-05-22T20:54:56.385Z,18.80
2019-05-22T20:57:28.752Z,18.70
2019-05-22T20:59:59.775Z,18.70
2019-05-22T21:02:31.581Z,18.60
2019-05-22T21:05:02.040Z,18.60
2019-05-22T21:07:36.409Z,18.50
2019-05-22T21:10:08.457Z,18.50
2019-05-22T21:12:39.577Z,18.40
2019-05-22T21:15:11.349Z,18.40
2019-05-22T21:17:44.084Z,18.40
2019-05-22T21:20:17.752Z,18.30
2019-05-22T21:22:49.070Z,18.30
2019-05-22T21:25:19.944Z,18.20
2019-05-22T21:27:50.461Z,18.10
2019-05-22T21:30:24.002Z,18.10
2019-05-22T21:32:55.484Z,18.00
2019-05-22T21:35:26.599Z,18.00
2019-05-22T21:37:58.961Z,17.90
2019-05-22T21:40:29.439Z,17.90
2019-05-22T21:43:00.981Z,17.90
2019-05-22T21:45:32.357Z,17.90
2019-05-22T21:48:03.595Z,17.90
2019-05-22T21:50:34.464Z,17.80
2019-05-22T21:53:07.769Z,17.90
2019-05-22T21:55:39.817Z,17.80
2019-05-22T21:58:10.776Z,17.80
2019-05-22T22:00:45.713Z,17.80
2019-05-22T22:03:21.621Z,17.80
2019-05-22T22:05:52.638Z,17.80
2019-05-22T22:08:23.774Z,17.70
2019-05-22T22:10:54.460Z,17.70
2019-05-22T22:13:26.752Z,17.70
2019-05-22T22:15:57.865Z,17.70
2019-05-22T22:18:28.301Z,17.70
2019-05-22T22:20:59.141Z,17.70
2019-05-22T22:23:31.237Z,17.70
2019-05-22T22:26:01.764Z,17.70
2019-05-22T22:28:32.132Z,17.70
2019-05-22T22:31:08.245Z,17.70
2019-05-22T22:33:40.705Z,17.60
2019-05-22T22:36:11.657Z,17.70
2019-05-22T22:38:43.236Z,17.60
2019-05-22T22:41:16.081Z,17.60
2019-05-22T22:43:49.049Z,17.60
2019-05-22T22:46:41.728Z,17.60
2019-05-22T22:49:14.192Z,17.50
2019-05-22T22:51:47.084Z,17.50
2019-05-22T22:54:18.147Z,17.50
2019-05-22T22:56:49.604Z,17.50
2019-05-22T22:59:20.351Z,17.50
2019-05-22T23:01:54.061Z,17.50
2019-05-22T23:04:27.404Z,17.40
2019-05-22T23:07:02.810Z,17.40
2019-05-22T23:09:36.102Z,17.40
2019-05-22T23:12:08.088Z,17.40
2019-05-22T23:14:41.453Z,17.30
2019-05-22T23:17:12.964Z,17.30
2019-05-22T23:19:46.214Z,17.20
2019-05-22T23:22:16.980Z,17.20
2019-05-22T23:24:49.639Z,17.10
2019-05-22T23:27:23.552Z,17.00
2019-05-22T23:29:54.525Z,17.10
2019-05-22T23:32:26.051Z,17.10
2019-05-22T23:34:59.829Z,17.10
2019-05-22T23:37:31.850Z,17.10
2019-05-22T23:40:03.337Z,17.00
2019-05-22T23:42:36.505Z,16.90
2019-05-22T23:45:10.849Z,16.80
2019-05-22T23:47:59.042Z,16.70
2019-05-22T23:50:31.881Z,16.80
2019-05-22T23:53:02.649Z,16.90
2019-05-22T23:55:34.477Z,17.00
2019-05-22T23:58:06.908Z,16.90
